sensor_id;sensor_type;location;lat;lon;timestamp;pressure;altitude;pressure_sealevel;temperature;humidity
62952;BME280;52163;52.212;-1.002;2023-04-26T00:02:21;100850.74;;;4.58;68.64
62952;BME280;52163;52.212;-1.002;2023-04-26T00:04:51;100849.64;;;4.54;69.48
62952;BME280;52163;52.212;-1.002;2023-04-26T00:07:21;100844.64;;;4.52;70.19
62952;BME280;52163;52.212;-1.002;2023-04-26T00:09:49;100840.05;;;4.47;69.95
62952;BME280;52163;52.212;-1.002;2023-04-26T00:12:15;100838.52;;;4.46;69.69
62952;BME280;52163;52.212;-1.002;2023-04-26T00:14:40;100833.26;;;4.46;69.93
62952;BME280;52163;52.212;-1.002;2023-04-26T00:17:06;100836.55;;;4.47;69.87
62952;BME280;52163;52.212;-1.002;2023-04-26T00:19:31;100830.54;;;4.49;69.65
62952;BME280;52163;52.212;-1.002;2023-04-26T00:21:57;100829.98;;;4.50;69.49
62952;BME280;52163;52.212;-1.002;2023-04-26T00:24:22;100829.63;;;4.51;69.53
62952;BME280;52163;52.212;-1.002;2023-04-26T00:26:48;100829.37;;;4.47;69.16
62952;BME280;52163;52.212;-1.002;2023-04-26T00:29:13;100826.20;;;4.42;69.28
62952;BME280;52163;52.212;-1.002;2023-04-26T00:31:38;100820.27;;;4.36;69.36
62952;BME280;52163;52.212;-1.002;2023-04-26T00:34:04;100815.41;;;4.28;69.34
62952;BME280;52163;52.212;-1.002;2023-04-26T00:36:29;100816.55;;;4.20;69.86
62952;BME280;52163;52.212;-1.002;2023-04-26T00:38:56;100822.00;;;4.12;70.00
62952;BME280;52163;52.212;-1.002;2023-04-26T00:41:22;100822.31;;;4.06;70.09
62952;BME280;52163;52.212;-1.002;2023-04-26T00:43:48;100823.52;;;4.01;70.90
62952;BME280;52163;52.212;-1.002;2023-04-26T00:46:14;100826.24;;;3.98;70.93
62952;BME280;52163;52.212;-1.002;2023-04-26T00:48:39;100824.44;;;3.94;71.24
62952;BME280;52163;52.212;-1.002;2023-04-26T00:51:05;100821.34;;;3.91;71.83
62952;BME280;52163;52.212;-1.002;2023-04-26T00:53:32;100818.59;;;3.90;72.25
62952;BME280;52163;52.212;-1.002;2023-04-26T00:55:59;100818.23;;;3.90;72.87
62952;BME280;52163;52.212;-1.002;2023-04-26T00:58:25;100816.63;;;3.92;73.21
62952;BME280;52163;52.212;-1.002;2023-04-26T01:00:51;100814.80;;;3.94;73.72
62952;BME280;52163;52.212;-1.002;2023-04-26T01:03:16;100811.73;;;3.98;74.27
62952;BME280;52163;52.212;-1.002;2023-04-26T01:05:42;100806.90;;;4.02;74.11
62952;BME280;52163;52.212;-1.002;2023-04-26T01:08:09;100810.48;;;4.05;73.97
62952;BME280;52163;52.212;-1.002;2023-04-26T01:10:34;100812.17;;;4.06;73.32
62952;BME280;52163;52.212;-1.002;2023-04-26T01:13:00;100808.89;;;4.05;72.96
62952;BME280;52163;52.212;-1.002;2023-04-26T01:15:27;100807.84;;;4.05;72.51
62952;BME280;52163;52.212;-1.002;2023-04-26T01:17:55;100808.34;;;4.06;72.26
62952;BME280;52163;52.212;-1.002;2023-04-26T01:20:22;100806.90;;;4.08;72.61
62952;BME280;52163;52.212;-1.002;2023-04-26T01:22:50;100799.80;;;4.05;72.24
62952;BME280;52163;52.212;-1.002;2023-04-26T01:25:16;100798.10;;;4.04;72.37
62952;BME280;52163;52.212;-1.002;2023-04-26T01:27:42;100799.02;;;4.02;72.31
62952;BME280;52163;52.212;-1.002;2023-04-26T01:30:09;100797.84;;;4.01;72.38
62952;BME280;52163;52.212;-1.002;2023-04-26T01:32:34;100800.15;;;3.99;72.89
62952;BME280;52163;52.212;-1.002;2023-04-26T01:35:00;100793.63;;;3.95;72.73
62952;BME280;52163;52.212;-1.002;2023-04-26T01:37:26;100790.91;;;3.92;73.27
62952;BME280;52163;52.212;-1.002;2023-04-26T01:39:51;100790.15;;;3.88;73.27
62952;BME280;52163;52.212;-1.002;2023-04-26T01:42:17;100787.44;;;3.85;73.49
62952;BME280;52163;52.212;-1.002;2023-04-26T01:44:42;100792.59;;;3.82;73.66
62952;BME280;52163;52.212;-1.002;2023-04-26T01:47:07;100796.81;;;3.81;74.03
62952;BME280;52163;52.212;-1.002;2023-04-26T01:49:33;100795.55;;;3.83;74.27
62952;BME280;52163;52.212;-1.002;2023-04-26T01:51:59;100795.86;;;3.84;74.98
62952;BME280;52163;52.212;-1.002;2023-04-26T01:54:24;100796.33;;;3.86;75.14
62952;BME280;52163;52.212;-1.002;2023-04-26T01:56:50;100801.34;;;3.88;74.81
62952;BME280;52163;52.212;-1.002;2023-04-26T01:59:16;100805.65;;;3.90;74.91
62952;BME280;52163;52.212;-1.002;2023-04-26T02:01:41;100806.34;;;3.91;74.54
62952;BME280;52163;52.212;-1.002;2023-04-26T02:04:08;100803.23;;;3.89;74.72
62952;BME280;52163;52.212;-1.002;2023-04-26T02:06:33;100795.29;;;3.86;74.93
62952;BME280;52163;52.212;-1.002;2023-04-26T02:08:59;100796.30;;;3.80;75.64
62952;BME280;52163;52.212;-1.002;2023-04-26T02:11:24;100801.63;;;3.77;75.70
62952;BME280;52163;52.212;-1.002;2023-04-26T02:13:51;100799.63;;;3.74;75.71
62952;BME280;52163;52.212;-1.002;2023-04-26T02:16:17;100798.37;;;3.69;75.71
62952;BME280;52163;52.212;-1.002;2023-04-26T02:18:43;100793.98;;;3.63;75.89
62952;BME280;52163;52.212;-1.002;2023-04-26T02:21:10;100794.30;;;3.57;75.81
62952;BME280;52163;52.212;-1.002;2023-04-26T02:23:35;100794.42;;;3.53;76.30
62952;BME280;52163;52.212;-1.002;2023-04-26T02:26:01;100796.63;;;3.48;76.56
62952;BME280;52163;52.212;-1.002;2023-04-26T02:28:27;100798.79;;;3.47;77.20
62952;BME280;52163;52.212;-1.002;2023-04-26T02:30:53;100798.09;;;3.46;77.46
62952;BME280;52163;52.212;-1.002;2023-04-26T02:33:18;100793.88;;;3.47;77.83
62952;BME280;52163;52.212;-1.002;2023-04-26T02:35:44;100794.73;;;3.47;77.63
62952;BME280;52163;52.212;-1.002;2023-04-26T02:38:09;100790.02;;;3.47;77.84
62952;BME280;52163;52.212;-1.002;2023-04-26T02:40:35;100791.95;;;3.47;77.71
62952;BME280;52163;52.212;-1.002;2023-04-26T02:43:00;100790.31;;;3.43;77.40
62952;BME280;52163;52.212;-1.002;2023-04-26T02:45:25;100788.70;;;3.38;77.81
62952;BME280;52163;52.212;-1.002;2023-04-26T02:47:51;100778.71;;;3.32;77.86
62952;BME280;52163;52.212;-1.002;2023-04-26T02:50:16;100782.15;;;3.28;78.02
62952;BME280;52163;52.212;-1.002;2023-04-26T02:52:42;100791.70;;;3.23;78.21
62952;BME280;52163;52.212;-1.002;2023-04-26T02:55:07;100797.56;;;3.19;78.75
62952;BME280;52163;52.212;-1.002;2023-04-26T02:57:33;100791.64;;;3.18;79.10
62952;BME280;52163;52.212;-1.002;2023-04-26T02:59:59;100795.23;;;3.22;78.97
62952;BME280;52163;52.212;-1.002;2023-04-26T03:02:25;100790.56;;;3.27;79.38
62952;BME280;52163;52.212;-1.002;2023-04-26T03:04:50;100792.83;;;3.34;79.75
62952;BME280;52163;52.212;-1.002;2023-04-26T03:07:16;100795.51;;;3.44;80.06
62952;BME280;52163;52.212;-1.002;2023-04-26T03:09:41;100792.79;;;3.55;80.29
62952;BME280;52163;52.212;-1.002;2023-04-26T03:12:07;100787.10;;;3.66;79.75
62952;BME280;52163;52.212;-1.002;2023-04-26T03:14:33;100787.95;;;3.73;79.37
62952;BME280;52163;52.212;-1.002;2023-04-26T03:17:00;100791.13;;;3.78;79.02
62952;BME280;52163;52.212;-1.002;2023-04-26T03:19:25;100796.27;;;3.82;78.65
62952;BME280;52163;52.212;-1.002;2023-04-26T03:21:53;100793.91;;;3.85;78.89
62952;BME280;52163;52.212;-1.002;2023-04-26T03:24:18;100791.57;;;3.87;78.85
62952;BME280;52163;52.212;-1.002;2023-04-26T03:26:44;100790.85;;;3.88;78.54
62952;BME280;52163;52.212;-1.002;2023-04-26T03:29:09;100789.61;;;3.89;78.62
62952;BME280;52163;52.212;-1.002;2023-04-26T03:31:36;100791.34;;;3.90;78.65
62952;BME280;52163;52.212;-1.002;2023-04-26T03:34:03;100788.13;;;3.92;79.03
62952;BME280;52163;52.212;-1.002;2023-04-26T03:36:28;100782.45;;;3.95;79.01
62952;BME280;52163;52.212;-1.002;2023-04-26T03:38:54;100774.58;;;4.01;79.32
62952;BME280;52163;52.212;-1.002;2023-04-26T03:41:20;100772.66;;;4.07;79.06
62952;BME280;52163;52.212;-1.002;2023-04-26T03:43:47;100773.07;;;4.12;78.83
62952;BME280;52163;52.212;-1.002;2023-04-26T03:46:12;100772.09;;;4.15;78.79
62952;BME280;52163;52.212;-1.002;2023-04-26T03:48:37;100769.67;;;4.20;78.83
62952;BME280;52163;52.212;-1.002;2023-04-26T03:51:03;100768.83;;;4.25;78.49
62952;BME280;52163;52.212;-1.002;2023-04-26T03:53:28;100765.66;;;4.25;78.29
62952;BME280;52163;52.212;-1.002;2023-04-26T03:55:54;100764.40;;;4.26;78.10
62952;BME280;52163;52.212;-1.002;2023-04-26T03:58:20;100762.86;;;4.25;78.38
62952;BME280;52163;52.212;-1.002;2023-04-26T04:00:45;100764.48;;;4.24;78.31
62952;BME280;52163;52.212;-1.002;2023-04-26T04:03:10;100762.43;;;4.22;78.28
62952;BME280;52163;52.212;-1.002;2023-04-26T04:05:36;100761.21;;;4.21;78.54
62952;BME280;52163;52.212;-1.002;2023-04-26T04:08:01;100757.37;;;4.21;78.70
62952;BME280;52163;52.212;-1.002;2023-04-26T04:10:27;100752.46;;;4.23;78.27
62952;BME280;52163;52.212;-1.002;2023-04-26T04:12:53;100748.16;;;4.26;78.77
62952;BME280;52163;52.212;-1.002;2023-04-26T04:15:19;100746.42;;;4.31;78.91
62952;BME280;52163;52.212;-1.002;2023-04-26T04:17:45;100743.50;;;4.35;78.87
62952;BME280;52163;52.212;-1.002;2023-04-26T04:20:11;100739.75;;;4.38;78.68
62952;BME280;52163;52.212;-1.002;2023-04-26T04:22:37;100736.77;;;4.38;78.62
62952;BME280;52163;52.212;-1.002;2023-04-26T04:25:06;100736.39;;;4.39;78.34
62952;BME280;52163;52.212;-1.002;2023-04-26T04:27:31;100732.71;;;4.40;78.69
62952;BME280;52163;52.212;-1.002;2023-04-26T04:29:57;100727.52;;;4.38;78.71
62952;BME280;52163;52.212;-1.002;2023-04-26T04:32:22;100722.66;;;4.36;78.76
62952;BME280;52163;52.212;-1.002;2023-04-26T04:34:48;100724.21;;;4.36;78.93
62952;BME280;52163;52.212;-1.002;2023-04-26T04:37:16;100725.73;;;4.38;78.97
62952;BME280;52163;52.212;-1.002;2023-04-26T04:39:42;100724.95;;;4.42;79.07
62952;BME280;52163;52.212;-1.002;2023-04-26T04:42:08;100722.52;;;4.46;79.36
62952;BME280;52163;52.212;-1.002;2023-04-26T04:44:34;100721.41;;;4.54;79.37
62952;BME280;52163;52.212;-1.002;2023-04-26T04:47:01;100724.38;;;4.59;79.51
62952;BME280;52163;52.212;-1.002;2023-04-26T04:49:26;100725.80;;;4.64;79.34
62952;BME280;52163;52.212;-1.002;2023-04-26T04:51:52;100727.64;;;4.67;79.18
62952;BME280;52163;52.212;-1.002;2023-04-26T04:54:17;100728.29;;;4.63;79.12
62952;BME280;52163;52.212;-1.002;2023-04-26T04:56:43;100733.27;;;4.61;78.64
62952;BME280;52163;52.212;-1.002;2023-04-26T04:59:09;100730.95;;;4.56;78.97
62952;BME280;52163;52.212;-1.002;2023-04-26T05:01:35;100733.02;;;4.52;79.36
62952;BME280;52163;52.212;-1.002;2023-04-26T05:04:03;100731.30;;;4.45;79.15
62952;BME280;52163;52.212;-1.002;2023-04-26T05:06:29;100733.56;;;4.40;79.41
62952;BME280;52163;52.212;-1.002;2023-04-26T05:08:56;100731.38;;;4.37;79.76
62952;BME280;52163;52.212;-1.002;2023-04-26T05:11:22;100735.77;;;4.36;80.04
62952;BME280;52163;52.212;-1.002;2023-04-26T05:13:48;100736.92;;;4.39;80.25
62952;BME280;52163;52.212;-1.002;2023-04-26T05:16:13;100733.05;;;4.45;80.58
62952;BME280;52163;52.212;-1.002;2023-04-26T05:18:39;100733.30;;;4.54;80.28
62952;BME280;52163;52.212;-1.002;2023-04-26T05:21:04;100733.95;;;4.61;80.66
62952;BME280;52163;52.212;-1.002;2023-04-26T05:23:30;100737.68;;;4.71;80.71
62952;BME280;52163;52.212;-1.002;2023-04-26T05:25:55;100743.52;;;4.79;80.59
62952;BME280;52163;52.212;-1.002;2023-04-26T05:28:21;100746.69;;;4.84;80.34
62952;BME280;52163;52.212;-1.002;2023-04-26T05:30:47;100750.35;;;4.90;80.23
62952;BME280;52163;52.212;-1.002;2023-04-26T05:33:14;100756.27;;;4.96;80.00
62952;BME280;52163;52.212;-1.002;2023-04-26T05:35:40;100754.52;;;5.02;79.94
62952;BME280;52163;52.212;-1.002;2023-04-26T05:38:05;100750.97;;;5.09;79.78
62952;BME280;52163;52.212;-1.002;2023-04-26T05:40:31;100749.73;;;5.14;79.51
62952;BME280;52163;52.212;-1.002;2023-04-26T05:42:56;100748.91;;;5.18;79.41
62952;BME280;52163;52.212;-1.002;2023-04-26T05:45:22;100748.13;;;5.20;79.32
62952;BME280;52163;52.212;-1.002;2023-04-26T05:47:47;100749.98;;;5.22;79.34
62952;BME280;52163;52.212;-1.002;2023-04-26T05:50:12;100751.13;;;5.25;79.61
62952;BME280;52163;52.212;-1.002;2023-04-26T05:52:38;100758.56;;;5.28;79.47
62952;BME280;52163;52.212;-1.002;2023-04-26T05:55:04;100761.30;;;5.35;79.97
62952;BME280;52163;52.212;-1.002;2023-04-26T05:57:30;100760.30;;;5.43;79.85
62952;BME280;52163;52.212;-1.002;2023-04-26T05:59:55;100762.03;;;5.48;79.58
62952;BME280;52163;52.212;-1.002;2023-04-26T06:02:21;100759.70;;;5.56;79.60
62952;BME280;52163;52.212;-1.002;2023-04-26T06:04:46;100759.38;;;5.60;79.26
62952;BME280;52163;52.212;-1.002;2023-04-26T06:07:11;100761.98;;;5.65;79.31
62952;BME280;52163;52.212;-1.002;2023-04-26T06:09:37;100766.14;;;5.71;79.49
62952;BME280;52163;52.212;-1.002;2023-04-26T06:12:02;100761.02;;;5.77;79.33
62952;BME280;52163;52.212;-1.002;2023-04-26T06:14:28;100765.91;;;5.83;79.14
62952;BME280;52163;52.212;-1.002;2023-04-26T06:16:55;100765.71;;;5.89;79.02
62952;BME280;52163;52.212;-1.002;2023-04-26T06:19:20;100765.67;;;5.94;79.09
62952;BME280;52163;52.212;-1.002;2023-04-26T06:21:46;100766.02;;;5.99;78.81
62952;BME280;52163;52.212;-1.002;2023-04-26T06:24:13;100764.02;;;6.02;78.84
62952;BME280;52163;52.212;-1.002;2023-04-26T06:26:39;100766.89;;;6.10;79.20
62952;BME280;52163;52.212;-1.002;2023-04-26T06:29:05;100773.39;;;6.23;79.41
62952;BME280;52163;52.212;-1.002;2023-04-26T06:31:30;100771.62;;;6.38;79.34
62952;BME280;52163;52.212;-1.002;2023-04-26T06:33:56;100775.80;;;6.52;78.87
62952;BME280;52163;52.212;-1.002;2023-04-26T06:36:22;100770.14;;;6.67;78.28
62952;BME280;52163;52.212;-1.002;2023-04-26T06:38:47;100776.60;;;6.77;77.86
62952;BME280;52163;52.212;-1.002;2023-04-26T06:41:13;100781.14;;;6.86;77.62
62952;BME280;52163;52.212;-1.002;2023-04-26T06:43:38;100782.33;;;6.96;77.22
62952;BME280;52163;52.212;-1.002;2023-04-26T06:46:04;100781.63;;;7.05;77.26
62952;BME280;52163;52.212;-1.002;2023-04-26T06:48:29;100783.54;;;7.14;76.72
62952;BME280;52163;52.212;-1.002;2023-04-26T06:50:54;100781.70;;;7.19;76.34
62952;BME280;52163;52.212;-1.002;2023-04-26T06:53:20;100779.52;;;7.30;76.18
62952;BME280;52163;52.212;-1.002;2023-04-26T06:55:45;100774.20;;;7.35;75.75
62952;BME280;52163;52.212;-1.002;2023-04-26T06:58:11;100774.73;;;7.43;75.75
62952;BME280;52163;52.212;-1.002;2023-04-26T07:00:36;100776.52;;;7.55;75.66
62952;BME280;52163;52.212;-1.002;2023-04-26T07:03:01;100777.41;;;7.71;75.43
62952;BME280;52163;52.212;-1.002;2023-04-26T07:05:27;100774.52;;;7.85;75.42
62952;BME280;52163;52.212;-1.002;2023-04-26T07:07:52;100772.48;;;8.03;75.11
62952;BME280;52163;52.212;-1.002;2023-04-26T07:10:18;100767.15;;;8.23;74.93
62952;BME280;52163;52.212;-1.002;2023-04-26T07:12:45;100773.66;;;8.46;74.57
62952;BME280;52163;52.212;-1.002;2023-04-26T07:15:10;100770.98;;;8.63;73.45
62952;BME280;52163;52.212;-1.002;2023-04-26T07:17:36;100767.84;;;8.73;73.32
62952;BME280;52163;52.212;-1.002;2023-04-26T07:20:01;100761.08;;;8.92;72.82
62952;BME280;52163;52.212;-1.002;2023-04-26T07:22:28;100764.21;;;9.07;71.63
62952;BME280;52163;52.212;-1.002;2023-04-26T07:24:53;100754.94;;;9.24;71.39
62952;BME280;52163;52.212;-1.002;2023-04-26T07:27:19;100754.71;;;9.43;70.73
62952;BME280;52163;52.212;-1.002;2023-04-26T07:29:44;100754.27;;;9.58;69.56
62952;BME280;52163;52.212;-1.002;2023-04-26T07:32:10;100750.30;;;9.73;68.94
62952;BME280;52163;52.212;-1.002;2023-04-26T07:34:35;100749.73;;;9.88;68.46
62952;BME280;52163;52.212;-1.002;2023-04-26T07:37:01;100749.61;;;10.00;67.75
62952;BME280;52163;52.212;-1.002;2023-04-26T07:39:26;100748.34;;;10.13;67.46
62952;BME280;52163;52.212;-1.002;2023-04-26T07:41:51;100748.02;;;10.26;66.96
62952;BME280;52163;52.212;-1.002;2023-04-26T07:44:17;100748.55;;;10.35;66.47
62952;BME280;52163;52.212;-1.002;2023-04-26T07:46:42;100752.84;;;10.45;65.99
62952;BME280;52163;52.212;-1.002;2023-04-26T07:49:07;100743.97;;;10.52;65.36
62952;BME280;52163;52.212;-1.002;2023-04-26T07:51:34;100742.02;;;10.58;64.98
62952;BME280;52163;52.212;-1.002;2023-04-26T07:53:59;100738.28;;;10.62;64.66
62952;BME280;52163;52.212;-1.002;2023-04-26T07:56:26;100743.42;;;10.65;64.04
62952;BME280;52163;52.212;-1.002;2023-04-26T07:58:51;100747.27;;;10.68;63.87
62952;BME280;52163;52.212;-1.002;2023-04-26T08:01:17;100753.05;;;10.69;63.52
62952;BME280;52163;52.212;-1.002;2023-04-26T08:03:42;100751.80;;;10.66;63.26
62952;BME280;52163;52.212;-1.002;2023-04-26T08:06:08;100760.14;;;10.62;63.06
62952;BME280;52163;52.212;-1.002;2023-04-26T08:08:34;100760.44;;;10.57;63.04
62952;BME280;52163;52.212;-1.002;2023-04-26T08:11:07;100760.76;;;10.52;63.14
62952;BME280;52163;52.212;-1.002;2023-04-26T08:13:34;100764.50;;;10.44;62.78
62952;BME280;52163;52.212;-1.002;2023-04-26T08:15:59;100765.19;;;10.38;62.96
62952;BME280;52163;52.212;-1.002;2023-04-26T08:18:25;100761.55;;;10.33;63.18
62952;BME280;52163;52.212;-1.002;2023-04-26T08:20:50;100761.15;;;10.28;62.69
62952;BME280;52163;52.212;-1.002;2023-04-26T08:23:15;100759.84;;;10.23;63.17
62952;BME280;52163;52.212;-1.002;2023-04-26T08:25:43;100758.27;;;10.22;63.04
62952;BME280;52163;52.212;-1.002;2023-04-26T08:28:09;100761.98;;;10.28;63.35
62952;BME280;52163;52.212;-1.002;2023-04-26T08:30:39;100761.63;;;10.39;63.38
62952;BME280;52163;52.212;-1.002;2023-04-26T08:33:04;100757.04;;;10.49;63.51
62952;BME280;52163;52.212;-1.002;2023-04-26T08:35:31;100750.83;;;10.62;63.49
62952;BME280;52163;52.212;-1.002;2023-04-26T08:37:56;100745.16;;;10.77;62.65
62952;BME280;52163;52.212;-1.002;2023-04-26T08:40:23;100745.95;;;10.97;62.15
62952;BME280;52163;52.212;-1.002;2023-04-26T08:42:50;100743.15;;;11.21;61.65
62952;BME280;52163;52.212;-1.002;2023-04-26T08:45:17;100747.27;;;11.36;60.77
62952;BME280;52163;52.212;-1.002;2023-04-26T08:47:46;100748.27;;;11.51;60.30
62952;BME280;52163;52.212;-1.002;2023-04-26T08:50:13;100747.52;;;11.70;59.65
62952;BME280;52163;52.212;-1.002;2023-04-26T08:52:40;100746.17;;;11.89;59.23
62952;BME280;52163;52.212;-1.002;2023-04-26T08:55:08;100744.24;;;12.09;58.21
62952;BME280;52163;52.212;-1.002;2023-04-26T08:57:42;100740.05;;;12.28;57.57
62952;BME280;52163;52.212;-1.002;2023-04-26T09:00:08;100739.91;;;12.41;56.85
62952;BME280;52163;52.212;-1.002;2023-04-26T09:02:42;100740.38;;;12.48;56.37
62952;BME280;52163;52.212;-1.002;2023-04-26T09:05:10;100738.22;;;12.54;56.02
62952;BME280;52163;52.212;-1.002;2023-04-26T09:10:05;100747.30;;;12.47;55.01
62952;BME280;52163;52.212;-1.002;2023-04-26T09:12:32;100751.84;;;12.52;54.95
62952;BME280;52163;52.212;-1.002;2023-04-26T09:14:57;100748.92;;;12.64;54.90
62952;BME280;52163;52.212;-1.002;2023-04-26T09:17:30;100748.33;;;12.78;54.40
62952;BME280;52163;52.212;-1.002;2023-04-26T09:19:56;100749.05;;;12.87;53.58
62952;BME280;52163;52.212;-1.002;2023-04-26T09:22:32;100751.13;;;12.95;53.15
62952;BME280;52163;52.212;-1.002;2023-04-26T09:24:58;100748.33;;;13.11;52.75
62952;BME280;52163;52.212;-1.002;2023-04-26T09:27:32;100743.61;;;13.28;52.70
62952;BME280;52163;52.212;-1.002;2023-04-26T09:30:18;100741.10;;;13.47;52.27
62952;BME280;52163;52.212;-1.002;2023-04-26T09:32:58;100745.41;;;13.65;52.01
62952;BME280;52163;52.212;-1.002;2023-04-26T09:35:38;100752.33;;;13.80;51.97
62952;BME280;52163;52.212;-1.002;2023-04-26T09:38:12;100753.23;;;13.92;51.45
62952;BME280;52163;52.212;-1.002;2023-04-26T09:40:49;100752.73;;;14.00;50.75
62952;BME280;52163;52.212;-1.002;2023-04-26T09:43:16;100750.75;;;14.03;49.84
62952;BME280;52163;52.212;-1.002;2023-04-26T09:45:43;100751.95;;;14.09;49.95
62952;BME280;52163;52.212;-1.002;2023-04-26T09:50:48;100749.30;;;14.48;48.93
62952;BME280;52163;52.212;-1.002;2023-04-26T09:55:50;100741.38;;;14.72;47.76
62952;BME280;52163;52.212;-1.002;2023-04-26T09:58:16;100735.33;;;14.72;47.64
62952;BME280;52163;52.212;-1.002;2023-04-26T10:00:41;100738.27;;;14.70;46.82
62952;BME280;52163;52.212;-1.002;2023-04-26T10:03:07;100740.69;;;14.64;46.66
62952;BME280;52163;52.212;-1.002;2023-04-26T10:05:33;100739.09;;;14.76;47.14
62952;BME280;52163;52.212;-1.002;2023-04-26T10:07:59;100734.10;;;14.91;46.61
62952;BME280;52163;52.212;-1.002;2023-04-26T10:10:24;100729.08;;;15.06;46.27
62952;BME280;52163;52.212;-1.002;2023-04-26T10:12:51;100724.00;;;15.28;46.39
62952;BME280;52163;52.212;-1.002;2023-04-26T10:15:17;100720.83;;;15.49;46.26
62952;BME280;52163;52.212;-1.002;2023-04-26T10:17:42;100721.87;;;15.62;45.37
62952;BME280;52163;52.212;-1.002;2023-04-26T10:20:11;100712.73;;;15.75;44.98
62952;BME280;52163;52.212;-1.002;2023-04-26T10:22:55;100708.92;;;15.83;44.54
62952;BME280;52163;52.212;-1.002;2023-04-26T10:25:39;100708.04;;;15.85;44.25
62952;BME280;52163;52.212;-1.002;2023-04-26T10:28:06;100706.48;;;15.82;43.94
62952;BME280;52163;52.212;-1.002;2023-04-26T10:30:32;100703.91;;;15.85;44.22
62952;BME280;52163;52.212;-1.002;2023-04-26T10:35:24;100699.95;;;15.81;43.38
62952;BME280;52163;52.212;-1.002;2023-04-26T10:40:38;100695.61;;;15.82;44.23
62952;BME280;52163;52.212;-1.002;2023-04-26T10:45:47;100691.29;;;15.44;43.00
62952;BME280;52163;52.212;-1.002;2023-04-26T10:48:41;100690.42;;;15.20;43.31
62952;BME280;52163;52.212;-1.002;2023-04-26T10:51:07;100688.35;;;15.13;44.42
62952;BME280;52163;52.212;-1.002;2023-04-26T10:58:45;100675.97;;;15.56;43.90
62952;BME280;52163;52.212;-1.002;2023-04-26T11:03:41;100673.42;;;15.56;43.43
62952;BME280;52163;52.212;-1.002;2023-04-26T11:06:09;100674.08;;;15.61;43.84
62952;BME280;52163;52.212;-1.002;2023-04-26T11:08:37;100669.08;;;15.78;43.98
62952;BME280;52163;52.212;-1.002;2023-04-26T11:13:32;100665.40;;;16.15;43.10
62952;BME280;52163;52.212;-1.002;2023-04-26T11:16:01;100660.80;;;16.23;42.81
62952;BME280;52163;52.212;-1.002;2023-04-26T11:18:29;100657.55;;;16.28;42.15
62952;BME280;52163;52.212;-1.002;2023-04-26T11:20:55;100659.42;;;16.36;41.54
62952;BME280;52163;52.212;-1.002;2023-04-26T11:23:22;100655.70;;;16.40;41.21
62952;BME280;52163;52.212;-1.002;2023-04-26T11:25:48;100657.57;;;16.37;41.15
62952;BME280;52163;52.212;-1.002;2023-04-26T11:28:14;100659.44;;;16.31;41.15
62952;BME280;52163;52.212;-1.002;2023-04-26T11:30:39;100661.73;;;16.25;41.35
62952;BME280;52163;52.212;-1.002;2023-04-26T11:33:05;100661.16;;;16.25;41.98
62952;BME280;52163;52.212;-1.002;2023-04-26T11:35:34;100658.50;;;16.28;41.93
62952;BME280;52163;52.212;-1.002;2023-04-26T11:38:03;100662.08;;;16.18;41.55
62952;BME280;52163;52.212;-1.002;2023-04-26T11:40:30;100661.11;;;16.06;41.75
62952;BME280;52163;52.212;-1.002;2023-04-26T11:43:00;100661.66;;;16.06;41.76
62952;BME280;52163;52.212;-1.002;2023-04-26T11:45:26;100662.06;;;16.10;40.94
62952;BME280;52163;52.212;-1.002;2023-04-26T11:47:52;100665.39;;;16.04;40.88
62952;BME280;52163;52.212;-1.002;2023-04-26T11:50:19;100667.13;;;16.05;40.91
62952;BME280;52163;52.212;-1.002;2023-04-26T11:52:47;100665.20;;;16.02;40.57
62952;BME280;52163;52.212;-1.002;2023-04-26T11:55:12;100667.73;;;15.99;40.63
62952;BME280;52163;52.212;-1.002;2023-04-26T11:57:38;100665.36;;;15.89;40.46
62952;BME280;52163;52.212;-1.002;2023-04-26T12:00:12;100665.41;;;15.88;41.08
62952;BME280;52163;52.212;-1.002;2023-04-26T12:02:47;100665.36;;;15.95;41.06
62952;BME280;52163;52.212;-1.002;2023-04-26T12:05:22;100664.14;;;16.06;40.90
62952;BME280;52163;52.212;-1.002;2023-04-26T12:07:50;100662.16;;;16.13;40.41
62952;BME280;52163;52.212;-1.002;2023-04-26T12:10:18;100663.38;;;16.14;40.59
62952;BME280;52163;52.212;-1.002;2023-04-26T12:12:46;100667.05;;;16.12;40.60
62952;BME280;52163;52.212;-1.002;2023-04-26T12:15:14;100664.06;;;16.09;41.10
62952;BME280;52163;52.212;-1.002;2023-04-26T12:17:39;100666.17;;;16.01;41.26
62952;BME280;52163;52.212;-1.002;2023-04-26T12:20:09;100668.63;;;15.90;41.24
62952;BME280;52163;52.212;-1.002;2023-04-26T12:22:35;100669.77;;;15.90;41.16
62952;BME280;52163;52.212;-1.002;2023-04-26T12:25:05;100667.20;;;15.88;40.83
62952;BME280;52163;52.212;-1.002;2023-04-26T12:27:30;100663.57;;;15.84;40.82
62952;BME280;52163;52.212;-1.002;2023-04-26T12:29:56;100666.91;;;15.80;41.05
62952;BME280;52163;52.212;-1.002;2023-04-26T12:32:22;100668.41;;;15.86;40.90
62952;BME280;52163;52.212;-1.002;2023-04-26T12:34:48;100665.02;;;15.95;41.14
62952;BME280;52163;52.212;-1.002;2023-04-26T12:37:13;100665.10;;;16.03;40.80
62952;BME280;52163;52.212;-1.002;2023-04-26T12:39:38;100669.40;;;16.09;40.69
62952;BME280;52163;52.212;-1.002;2023-04-26T12:42:04;100669.52;;;16.12;40.71
62952;BME280;52163;52.212;-1.002;2023-04-26T12:44:29;100669.80;;;16.22;40.65
62952;BME280;52163;52.212;-1.002;2023-04-26T12:46:54;100666.52;;;16.34;40.66
62952;BME280;52163;52.212;-1.002;2023-04-26T12:49:20;100666.30;;;16.54;40.42
62952;BME280;52163;52.212;-1.002;2023-04-26T12:51:45;100666.80;;;16.70;40.04
62952;BME280;52163;52.212;-1.002;2023-04-26T12:54:11;100668.05;;;16.83;39.60
62952;BME280;52163;52.212;-1.002;2023-04-26T12:56:36;100670.08;;;16.86;39.13
62952;BME280;52163;52.212;-1.002;2023-04-26T12:59:08;100667.80;;;16.88;39.28
62952;BME280;52163;52.212;-1.002;2023-04-26T13:01:33;100670.12;;;16.88;39.21
62952;BME280;52163;52.212;-1.002;2023-04-26T13:03:59;100672.64;;;16.90;39.25
62952;BME280;52163;52.212;-1.002;2023-04-26T13:06:25;100670.08;;;16.91;39.20
62952;BME280;52163;52.212;-1.002;2023-04-26T13:08:52;100673.80;;;16.84;38.98